Time,TemperatureF,DewpointF,PressureIn,WindDirection,WindDirectionDegrees,WindSpeedMPH,WindSpeedGustMPH,Humidity,HourlyPrecipIn,Conditions,Clouds,dailyrainin,SoftwareType,DateUTC
2013-10-08 00:00:00,55.8,53.5,29.32,WSW,248,3.1,4.0,92,0.00,,---,0.00,VWS V14.01,2013-10-08 04:00:00,
2013-10-08 00:02:00,55.8,53.5,29.32,WSW,248,1.3,3.1,92,0.00,,---,0.00,VWS V14.01,2013-10-08 04:02:00,
2013-10-08 00:03:00,55.8,52.9,29.32,SSW,202,2.5,2.9,90,0.00,,---,0.00,VWS V14.01,2013-10-08 04:03:00,
2013-10-08 00:04:00,55.6,53.0,29.32,SSW,202,2.5,2.7,91,0.00,,---,0.00,VWS V14.01,2013-10-08 04:04:00,
2013-10-08 00:05:00,55.6,53.0,29.32,NW,315,2.7,2.7,91,0.00,,---,0.00,VWS V14.01,2013-10-08 04:05:00,
2013-10-08 00:11:00,54.9,52.3,29.32,SW,225,2.5,2.5,91,0.00,,---,0.00,VWS V14.01,2013-10-08 04:11:00,
2013-10-08 00:12:00,54.9,52.3,29.32,SW,225,0.0,2.7,91,0.00,,---,0.00,VWS V14.01,2013-10-08 04:12:00,
2013-10-08 00:18:00,54.5,51.6,29.32,WSW,248,3.6,3.6,90,0.00,,---,0.00,VWS V14.01,2013-10-08 04:18:00,
2013-10-08 00:23:00,54.3,51.5,29.32,WSW,248,2.0,3.1,90,0.00,,---,0.00,VWS V14.01,2013-10-08 04:23:00,
2013-10-08 00:28:00,54.1,51.3,29.32,SW,225,1.6,2.2,90,0.00,,---,0.00,VWS V14.01,2013-10-08 04:28:00,
2013-10-08 00:34:00,53.8,50.9,29.32,West,270,4.0,5.6,90,0.00,,---,0.00,VWS V14.01,2013-10-08 04:34:00,
2013-10-08 00:39:00,53.8,50.9,29.32,SW,225,2.0,3.1,90,0.00,,---,0.00,VWS V14.01,2013-10-08 04:39:00,
2013-10-08 00:44:00,53.6,50.7,29.32,WSW,248,2.5,2.5,90,0.00,,---,0.00,VWS V14.01,2013-10-08 04:44:00,
2013-10-08 00:50:00,53.4,50.9,29.35,West,270,3.4,3.4,91,0.00,,---,0.00,VWS V14.01,2013-10-08 04:50:00,
2013-10-08 00:55:00,53.4,50.9,29.35,West,270,1.3,2.5,91,0.00,,---,0.00,VWS V14.01,2013-10-08 04:55:00,
2013-10-08 01:01:00,53.2,50.4,29.35,WSW,248,3.6,3.6,90,0.00,,---,0.00,VWS V14.01,2013-10-08 05:01:00,
2013-10-08 01:07:00,53.1,50.2,29.35,West,270,3.4,10.1,90,0.00,,---,0.00,VWS V14.01,2013-10-08 05:07:00,
2013-10-08 01:13:00,53.1,50.2,29.35,West,270,2.5,4.7,90,0.00,,---,0.00,VWS V14.01,2013-10-08 05:13:00,
2013-10-08 01:18:00,52.9,49.7,29.35,West,270,1.6,2.5,89,0.00,,---,0.00,VWS V14.01,2013-10-08 05:18:00,
2013-10-08 01:23:00,52.9,49.7,29.35,NNW,338,4.9,4.9,89,0.00,,---,0.00,VWS V14.01,2013-10-08 05:23:00,
2013-10-08 01:28:00,53.6,48.6,29.35,NW,315,3.1,3.6,83,0.00,,---,0.00,VWS V14.01,2013-10-08 05:28:00,
2013-10-08 01:33:00,53.4,49.0,29.35,NW,315,0.0,0.0,85,0.00,,---,0.00,VWS V14.01,2013-10-08 05:33:00,
2013-10-08 01:38:00,52.9,48.5,29.35,NW,315,2.0,2.0,85,0.00,,---,0.00,VWS V14.01,2013-10-08 05:38:00,
2013-10-08 01:44:00,52.7,48.3,29.35,NNW,338,1.6,2.0,85,0.00,,---,0.00,VWS V14.01,2013-10-08 05:44:00,
2013-10-08 01:49:00,52.5,48.2,29.35,SW,225,2.7,2.9,85,0.00,,---,0.00,VWS V14.01,2013-10-08 05:49:00,
2013-10-08 01:54:00,52.2,48.1,29.35,SW,225,0.0,0.9,86,0.00,,---,0.00,VWS V14.01,2013-10-08 05:54:00,
2013-10-08 01:59:00,51.8,47.8,29.35,SW,225,0.0,0.0,86,0.00,,---,0.00,VWS V14.01,2013-10-08 05:59:00,
2013-10-08 02:04:00,51.4,47.7,29.35,SW,225,2.0,2.0,87,0.00,,---,0.00,VWS V14.01,2013-10-08 06:04:00,
2013-10-08 02:10:00,51.4,47.7,29.35,WSW,248,0.0,2.9,87,0.00,,---,0.00,VWS V14.01,2013-10-08 06:10:00,
2013-10-08 02:15:00,51.6,47.9,29.35,SSW,202,2.7,2.7,87,0.00,,---,0.00,VWS V14.01,2013-10-08 06:15:00,
2013-10-08 02:20:00,51.6,47.6,29.38,SW,225,2.5,2.5,86,0.00,,---,0.00,VWS V14.01,2013-10-08 06:20:00,
2013-10-08 02:26:00,51.6,47.0,29.38,SSW,202,2.5,2.5,84,0.00,,---,0.00,VWS V14.01,2013-10-08 06:26:00,
2013-10-08 02:31:00,51.4,46.8,29.38,SSW,202,0.0,0.0,84,0.00,,---,0.00,VWS V14.01,2013-10-08 06:31:00,
2013-10-08 02:36:00,51.3,46.6,29.38,West,270,2.0,2.5,84,0.00,,---,0.00,VWS V14.01,2013-10-08 06:36:00,
2013-10-08 02:41:00,51.4,46.5,29.38,WSW,248,1.6,2.0,83,0.00,,---,0.00,VWS V14.01,2013-10-08 06:41:00,
2013-10-08 02:47:00,51.8,46.2,29.38,WSW,248,2.0,2.7,81,0.00,,---,0.00,VWS V14.01,2013-10-08 06:47:00,
2013-10-08 02:52:00,51.4,45.8,29.38,West,270,1.1,2.5,81,0.00,,---,0.00,VWS V14.01,2013-10-08 06:52:00,
2013-10-08 02:57:00,51.6,46.0,29.38,West,270,3.4,4.0,81,0.00,,---,0.00,VWS V14.01,2013-10-08 06:57:00,
2013-10-08 03:02:00,51.6,46.0,29.38,WNW,292,1.1,3.1,81,0.00,,---,0.00,VWS V14.01,2013-10-08 07:02:00,
2013-10-08 03:07:00,51.8,45.8,29.38,SW,225,2.9,2.9,80,0.00,,---,0.00,VWS V14.01,2013-10-08 07:07:00,
2013-10-08 03:13:00,51.8,45.8,29.38,West,270,2.9,3.6,80,0.00,,---,0.00,VWS V14.01,2013-10-08 07:13:00,
2013-10-08 03:18:00,51.6,45.7,29.38,SW,225,0.0,2.5,80,0.00,,---,0.00,VWS V14.01,2013-10-08 07:18:00,
2013-10-08 03:24:00,51.3,45.3,29.38,SSW,202,1.1,2.0,80,0.00,,---,0.00,VWS V14.01,2013-10-08 07:24:00,
2013-10-08 03:29:00,51.1,45.1,29.38,SSW,202,1.3,2.2,80,0.00,,---,0.00,VWS V14.01,2013-10-08 07:29:00,
2013-10-08 03:34:00,50.9,45.3,29.38,SW,225,2.9,3.4,81,0.00,,---,0.00,VWS V14.01,2013-10-08 07:34:00,
2013-10-08 03:40:00,51.3,45.6,29.38,SW,225,1.6,3.4,81,0.00,,---,0.00,VWS V14.01,2013-10-08 07:40:00,
2013-10-08 03:45:00,51.1,45.5,29.38,WSW,248,1.3,1.6,81,0.00,,---,0.00,VWS V14.01,2013-10-08 07:45:00,
2013-10-08 03:50:00,50.7,45.1,29.38,SW,225,2.7,2.7,81,0.00,,---,0.00,VWS V14.01,2013-10-08 07:50:00,
2013-10-08 03:56:00,50.2,44.9,29.38,NW,315,2.5,2.5,82,0.00,,---,0.00,VWS V14.01,2013-10-08 07:56:00,
2013-10-08 04:02:00,50.0,44.7,29.38,SW,225,0.0,1.1,82,0.00,,---,0.00,VWS V14.01,2013-10-08 08:02:00,
2013-10-08 04:07:00,49.8,44.9,29.41,SW,225,2.9,3.1,83,0.00,,---,0.00,VWS V14.01,2013-10-08 08:07:00,
2013-10-08 04:13:00,49.6,44.7,29.41,SSW,202,2.0,2.9,83,0.00,,---,0.00,VWS V14.01,2013-10-08 08:13:00,
2013-10-08 04:18:00,49.5,44.8,29.41,SW,225,1.6,2.0,84,0.00,,---,0.00,VWS V14.01,2013-10-08 08:18:00,
2013-10-08 04:23:00,49.6,45.0,29.41,SW,225,3.6,3.8,84,0.00,,---,0.00,VWS V14.01,2013-10-08 08:23:00,
2013-10-08 04:28:00,50.0,45.4,29.41,West,270,0.0,2.7,84,0.00,,---,0.00,VWS V14.01,2013-10-08 08:28:00,
2013-10-08 04:34:00,50.4,45.4,29.44,NNW,338,2.9,2.9,83,0.00,,---,0.00,VWS V14.01,2013-10-08 08:34:00,
2013-10-08 04:39:00,50.7,45.4,29.44,West,270,0.9,1.1,82,0.00,,---,0.00,VWS V14.01,2013-10-08 08:39:00,
2013-10-08 04:44:00,51.3,45.3,29.44,SSW,202,1.3,2.0,80,0.00,,---,0.00,VWS V14.01,2013-10-08 08:44:00,
2013-10-08 04:49:00,51.3,44.3,29.44,NW,315,1.3,2.9,77,0.00,,---,0.00,VWS V14.01,2013-10-08 08:49:00,
2013-10-08 04:54:00,51.4,44.1,29.44,NNW,338,3.1,3.1,76,0.00,,---,0.00,VWS V14.01,2013-10-08 08:54:00,
2013-10-08 05:00:00,51.1,44.5,29.44,SW,225,0.0,0.0,78,0.00,,---,0.00,VWS V14.01,2013-10-08 09:00:00,
2013-10-08 05:05:00,50.5,43.6,29.44,SW,225,0.0,0.0,77,0.00,,---,0.00,VWS V14.01,2013-10-08 09:05:00,
2013-10-08 05:11:00,50.7,43.4,29.44,SW,225,2.7,2.7,76,0.00,,---,0.00,VWS V14.01,2013-10-08 09:11:00,
2013-10-08 05:16:00,51.4,43.8,29.44,SSW,202,2.0,2.5,75,0.00,,---,0.00,VWS V14.01,2013-10-08 09:16:00,
2013-10-08 05:21:00,51.3,43.3,29.47,SW,225,1.3,1.3,74,0.00,,---,0.00,VWS V14.01,2013-10-08 09:21:00,
2013-10-08 05:26:00,52.0,40.2,29.47,WNW,292,2.5,5.8,64,0.00,,---,0.00,VWS V14.01,2013-10-08 09:26:00,
2013-10-08 05:31:00,52.2,40.8,29.47,SW,225,2.5,2.5,65,0.00,,---,0.00,VWS V14.01,2013-10-08 09:31:00,
2013-10-08 05:37:00,52.2,40.4,29.47,SW,225,0.0,0.9,64,0.00,,---,0.00,VWS V14.01,2013-10-08 09:37:00,
2013-10-08 05:42:00,51.6,41.0,29.47,ENE,68,0.0,2.7,67,0.00,,---,0.00,VWS V14.01,2013-10-08 09:42:00,
2013-10-08 05:47:00,51.4,41.6,29.47,ENE,68,0.0,0.0,69,0.00,,---,0.00,VWS V14.01,2013-10-08 09:47:00,
2013-10-08 05:52:00,50.9,41.1,29.50,ENE,68,2.5,2.9,69,0.00,,---,0.00,VWS V14.01,2013-10-08 09:52:00,
2013-10-08 05:58:00,50.7,41.3,29.50,ENE,68,0.0,0.0,70,0.00,,---,0.00,VWS V14.01,2013-10-08 09:58:00,
2013-10-08 06:04:00,50.2,40.8,29.50,SSW,202,0.0,2.5,70,0.00,,---,0.00,VWS V14.01,2013-10-08 10:04:00,
2013-10-08 06:09:00,50.0,41.3,29.50,West,270,2.2,4.3,72,0.00,,---,0.00,VWS V14.01,2013-10-08 10:09:00,
2013-10-08 06:14:00,49.6,41.0,29.50,WSW,248,2.2,3.6,72,0.00,,---,0.00,VWS V14.01,2013-10-08 10:14:00,
2013-10-08 06:19:00,49.8,40.8,29.50,NW,315,2.5,3.4,71,0.00,,---,0.00,VWS V14.01,2013-10-08 10:19:00,
2013-10-08 06:24:00,49.5,40.8,29.50,NW,315,0.0,0.0,72,0.00,,---,0.00,VWS V14.01,2013-10-08 10:24:00,
2013-10-08 06:29:00,48.9,40.3,29.50,West,270,2.0,2.0,72,0.00,,---,0.00,VWS V14.01,2013-10-08 10:29:00,
2013-10-08 06:34:00,48.9,40.3,29.53,ESE,112,2.5,3.4,72,0.00,,---,0.00,VWS V14.01,2013-10-08 10:34:00,
2013-10-08 06:39:00,48.9,40.3,29.53,North,0,1.1,1.1,72,0.00,,---,0.00,VWS V14.01,2013-10-08 10:39:00,
2013-10-08 06:44:00,49.1,40.1,29.53,SW,225,2.2,2.5,71,0.00,,---,0.00,VWS V14.01,2013-10-08 10:44:00,
2013-10-08 06:49:00,49.6,38.4,29.53,WSW,248,3.6,3.6,65,0.00,,---,0.00,VWS V14.01,2013-10-08 10:49:00,
2013-10-08 06:54:00,49.5,38.2,29.53,NW,315,2.5,2.5,65,0.00,,---,0.00,VWS V14.01,2013-10-08 10:54:00,
2013-10-08 06:59:00,50.0,37.1,29.53,SW,225,3.8,6.3,61,0.00,,---,0.00,VWS V14.01,2013-10-08 10:59:00,
2013-10-08 07:04:00,49.8,37.8,29.53,WNW,292,2.0,2.0,63,0.00,,---,0.00,VWS V14.01,2013-10-08 11:04:00,
2013-10-08 07:09:00,49.8,36.1,29.53,ESE,112,1.3,3.1,59,0.00,,---,0.00,VWS V14.01,2013-10-08 11:09:00,
2013-10-08 07:14:00,49.6,37.2,29.53,ESE,112,2.2,2.5,62,0.00,,---,0.00,VWS V14.01,2013-10-08 11:14:00,
2013-10-08 07:19:00,49.5,36.2,29.53,West,270,3.1,3.6,60,0.00,,---,0.00,VWS V14.01,2013-10-08 11:19:00,
2013-10-08 07:24:00,49.5,36.6,29.53,NW,315,4.0,4.0,61,0.00,,---,0.00,VWS V14.01,2013-10-08 11:24:00,
2013-10-08 07:29:00,49.5,34.9,29.53,NNE,22,6.3,6.3,57,0.00,,---,0.00,VWS V14.01,2013-10-08 11:29:00,
2013-10-08 07:34:00,50.0,35.4,29.56,NNE,22,0.0,0.0,57,0.00,,---,0.00,VWS V14.01,2013-10-08 11:34:00,
2013-10-08 07:39:00,49.6,35.9,29.56,West,270,1.6,1.6,59,0.00,,---,0.00,VWS V14.01,2013-10-08 11:39:00,
2013-10-08 07:44:00,49.3,36.8,29.56,South,180,0.0,0.9,62,0.00,,---,0.00,VWS V14.01,2013-10-08 11:44:00,
2013-10-08 07:49:00,48.9,36.9,29.56,South,180,0.0,0.0,63,0.00,,---,0.00,VWS V14.01,2013-10-08 11:49:00,
2013-10-08 07:54:00,48.7,37.5,29.56,East,90,1.3,2.0,65,0.00,,---,0.00,VWS V14.01,2013-10-08 11:54:00,
2013-10-08 07:59:00,48.6,38.1,29.56,ENE,68,0.0,1.3,67,0.00,,---,0.00,VWS V14.01,2013-10-08 11:59:00,
2013-10-08 08:04:00,48.6,38.1,29.59,ENE,68,0.0,0.0,67,0.00,,---,0.00,VWS V14.01,2013-10-08 12:04:00,
2013-10-08 08:09:00,48.6,38.5,29.59,ENE,68,1.6,2.2,68,0.00,,---,0.00,VWS V14.01,2013-10-08 12:09:00,
2013-10-08 08:14:00,48.6,39.2,29.59,NE,45,0.0,0.0,70,0.00,,---,0.00,VWS V14.01,2013-10-08 12:14:00,
2013-10-08 08:20:00,48.7,39.4,29.59,NE,45,0.0,0.0,70,0.00,,---,0.00,VWS V14.01,2013-10-08 12:20:00,
2013-10-08 08:25:00,48.9,38.8,29.59,NW,315,0.9,2.5,68,0.00,,---,0.00,VWS V14.01,2013-10-08 12:25:00,
2013-10-08 08:30:00,49.6,38.8,29.59,ENE,68,2.9,2.9,66,0.00,,---,0.00,VWS V14.01,2013-10-08 12:30:00,
2013-10-08 08:35:00,50.2,37.3,29.59,WSW,248,2.5,5.6,61,0.00,,---,0.00,VWS V14.01,2013-10-08 12:35:00,
2013-10-08 08:41:00,50.5,37.6,29.59,SSE,158,3.6,3.8,61,0.00,,---,0.00,VWS V14.01,2013-10-08 12:41:00,
2013-10-08 08:46:00,50.9,37.5,29.59,SSE,158,2.5,3.6,60,0.00,,---,0.00,VWS V14.01,2013-10-08 12:46:00,
2013-10-08 08:51:00,51.3,38.7,29.62,NE,45,2.2,2.2,62,0.00,,---,0.00,VWS V14.01,2013-10-08 12:51:00,
2013-10-08 08:56:00,51.6,39.0,29.62,ENE,68,2.0,3.4,62,0.00,,---,0.00,VWS V14.01,2013-10-08 12:56:00,
2013-10-08 09:02:00,51.8,37.5,29.62,South,180,2.2,4.7,58,0.00,,---,0.00,VWS V14.01,2013-10-08 13:02:00,
2013-10-08 09:07:00,52.0,36.8,29.65,NNE,22,2.7,4.9,56,0.00,,---,0.00,VWS V14.01,2013-10-08 13:07:00,
2013-10-08 09:12:00,52.0,35.4,29.65,NNE,22,2.9,3.8,53,0.00,,---,0.00,VWS V14.01,2013-10-08 13:12:00,
2013-10-08 09:17:00,51.8,33.8,29.65,SSW,202,1.6,2.2,50,0.00,,---,0.00,VWS V14.01,2013-10-08 13:17:00,
2013-10-08 09:22:00,51.8,35.2,29.62,NE,45,3.1,4.7,53,0.00,,---,0.00,VWS V14.01,2013-10-08 13:22:00,
2013-10-08 09:27:00,51.8,35.2,29.62,ENE,68,2.9,4.7,53,0.00,,---,0.00,VWS V14.01,2013-10-08 13:27:00,
2013-10-08 09:32:00,52.0,34.9,29.62,West,270,2.0,3.8,52,0.00,,---,0.00,VWS V14.01,2013-10-08 13:32:00,
2013-10-08 09:38:00,52.0,34.4,29.65,NNW,338,1.1,3.1,51,0.00,,---,0.00,VWS V14.01,2013-10-08 13:38:00,
2013-10-08 09:43:00,52.0,34.4,29.65,ENE,68,2.7,3.6,51,0.00,,---,0.00,VWS V14.01,2013-10-08 13:43:00,
2013-10-08 09:48:00,52.0,34.9,29.65,WSW,248,2.7,4.3,52,0.00,,---,0.00,VWS V14.01,2013-10-08 13:48:00,
2013-10-08 09:53:00,52.0,33.9,29.62,ESE,112,1.6,3.6,50,0.00,,---,0.00,VWS V14.01,2013-10-08 13:53:00,
2013-10-08 09:58:00,52.2,33.6,29.62,NE,45,5.8,5.8,49,0.00,,---,0.00,VWS V14.01,2013-10-08 13:58:00,
2013-10-08 10:03:00,52.2,34.1,29.62,SW,225,4.3,4.3,50,0.00,,---,0.00,VWS V14.01,2013-10-08 14:03:00,
2013-10-08 10:08:00,52.2,34.1,29.65,SSE,158,3.4,3.8,50,0.00,,---,0.00,VWS V14.01,2013-10-08 14:08:00,
2013-10-08 10:13:00,52.2,34.1,29.65,ENE,68,4.7,4.7,50,0.00,,---,0.00,VWS V14.01,2013-10-08 14:13:00,
2013-10-08 10:18:00,52.2,34.1,29.65,ESE,112,4.9,5.6,50,0.00,,---,0.00,VWS V14.01,2013-10-08 14:18:00,
2013-10-08 10:23:00,52.2,33.6,29.65,SSE,158,2.7,5.4,49,0.00,,---,0.00,VWS V14.01,2013-10-08 14:23:00,
2013-10-08 10:28:00,52.3,33.8,29.65,SW,225,2.7,5.4,49,0.00,,---,0.00,VWS V14.01,2013-10-08 14:28:00,
2013-10-08 10:33:00,52.3,33.2,29.65,NNW,338,2.2,3.8,48,0.00,,---,0.00,VWS V14.01,2013-10-08 14:33:00,
2013-10-08 10:38:00,52.3,33.8,29.65,ENE,68,2.7,4.3,49,0.00,,---,0.00,VWS V14.01,2013-10-08 14:38:00,
2013-10-08 10:43:00,52.5,32.9,29.65,SSW,202,5.8,6.9,47,0.00,,---,0.00,VWS V14.01,2013-10-08 14:43:00,
2013-10-08 10:48:00,52.5,32.9,29.65,SSW,202,4.0,4.0,47,0.00,,---,0.00,VWS V14.01,2013-10-08 14:48:00,
2013-10-08 10:54:00,52.7,33.0,29.65,WNW,292,6.5,7.8,47,0.00,,---,0.00,VWS V14.01,2013-10-08 14:54:00,
2013-10-08 10:59:00,52.9,33.2,29.65,ENE,68,3.6,4.0,47,0.00,,---,0.00,VWS V14.01,2013-10-08 14:59:00,
2013-10-08 11:04:00,52.9,33.7,29.65,NNW,338,4.3,4.3,48,0.00,,---,0.00,VWS V14.01,2013-10-08 15:04:00,
2013-10-08 11:10:00,53.1,33.4,29.65,West,270,2.7,8.7,47,0.00,,---,0.00,VWS V14.01,2013-10-08 15:10:00,
2013-10-08 11:15:00,53.2,33.0,29.65,East,90,2.7,5.8,46,0.00,,---,0.00,VWS V14.01,2013-10-08 15:15:00,
2013-10-08 11:20:00,53.4,33.2,29.65,SSW,202,5.6,5.6,46,0.00,,---,0.00,VWS V14.01,2013-10-08 15:20:00,
2013-10-08 11:26:00,53.6,32.2,29.65,NNW,338,7.8,8.7,44,0.00,,---,0.00,VWS V14.01,2013-10-08 15:26:00,
2013-10-08 11:32:00,54.0,33.7,29.65,West,270,10.7,10.7,46,0.00,,---,0.00,VWS V14.01,2013-10-08 15:32:00,
2013-10-08 11:37:00,54.1,33.3,29.65,WSW,248,3.1,4.9,45,0.00,,---,0.00,VWS V14.01,2013-10-08 15:37:00,
2013-10-08 11:42:00,54.3,33.5,29.65,WSW,248,4.0,4.0,45,0.00,,---,0.00,VWS V14.01,2013-10-08 15:42:00,
2013-10-08 11:47:00,54.3,33.5,29.65,WSW,248,4.3,4.3,45,0.00,,---,0.00,VWS V14.01,2013-10-08 15:47:00,
2013-10-08 11:52:00,54.5,32.5,29.68,ESE,112,3.4,10.3,43,0.00,,---,0.00,VWS V14.01,2013-10-08 15:52:00,
2013-10-08 11:57:00,54.7,33.2,29.68,SW,225,5.4,7.6,44,0.00,,---,0.00,VWS V14.01,2013-10-08 15:57:00,
2013-10-08 12:02:00,54.9,33.9,29.68,SSW,202,2.9,7.8,45,0.00,,---,0.00,VWS V14.01,2013-10-08 16:02:00,
2013-10-08 12:07:00,55.0,33.5,29.68,NNE,22,2.7,10.5,44,0.00,,---,0.00,VWS V14.01,2013-10-08 16:07:00,
2013-10-08 12:12:00,55.2,33.1,29.68,NE,45,3.1,5.6,43,0.00,,---,0.00,VWS V14.01,2013-10-08 16:12:00,
2013-10-08 12:18:00,55.2,33.1,29.68,ENE,68,6.0,6.0,43,0.00,,---,0.00,VWS V14.01,2013-10-08 16:18:00,
2013-10-08 12:23:00,55.6,32.9,29.68,NNW,338,3.4,3.4,42,0.00,,---,0.00,VWS V14.01,2013-10-08 16:23:00,
2013-10-08 12:28:00,55.8,34.2,29.68,East,90,2.5,3.1,44,0.00,,---,0.00,VWS V14.01,2013-10-08 16:28:00,
2013-10-08 12:34:00,55.9,34.4,29.68,ENE,68,1.6,3.4,44,0.00,,---,0.00,VWS V14.01,2013-10-08 16:34:00,
2013-10-08 12:40:00,56.3,34.7,29.68,WNW,292,4.0,7.6,44,0.00,,---,0.00,VWS V14.01,2013-10-08 16:40:00,
2013-10-08 12:45:00,56.3,34.1,29.68,SSE,158,2.5,3.8,43,0.00,,---,0.00,VWS V14.01,2013-10-08 16:45:00,
2013-10-08 12:51:00,56.5,32.5,29.68,NNW,338,3.4,6.7,40,0.00,,---,0.00,VWS V14.01,2013-10-08 16:51:00,
2013-10-08 12:56:00,56.7,32.6,29.68,WSW,248,3.8,4.9,40,0.00,,---,0.00,VWS V14.01,2013-10-08 16:56:00,
2013-10-08 13:01:00,56.8,32.8,29.68,East,90,5.6,5.6,40,0.00,,---,0.00,VWS V14.01,2013-10-08 17:01:00,
2013-10-08 13:06:00,56.8,33.4,29.68,SSW,202,3.1,5.8,41,0.00,,---,0.00,VWS V14.01,2013-10-08 17:06:00,
2013-10-08 13:12:00,56.8,32.2,29.68,East,90,4.9,9.4,39,0.00,,---,0.00,VWS V14.01,2013-10-08 17:12:00,
2013-10-08 13:17:00,57.0,33.6,29.68,SW,225,3.1,4.7,41,0.00,,---,0.00,VWS V14.01,2013-10-08 17:17:00,
2013-10-08 13:23:00,57.2,32.5,29.68,WNW,292,3.6,7.4,39,0.00,,---,0.00,VWS V14.01,2013-10-08 17:23:00,
2013-10-08 13:29:00,57.2,32.5,29.68,SSW,202,3.1,3.8,39,0.00,,---,0.00,VWS V14.01,2013-10-08 17:29:00,
2013-10-08 13:34:00,57.6,32.2,29.65,SE,135,1.6,3.8,38,0.00,,---,0.00,VWS V14.01,2013-10-08 17:34:00,
2013-10-08 13:39:00,57.7,32.3,29.65,NNE,22,3.6,3.6,38,0.00,,---,0.00,VWS V14.01,2013-10-08 17:39:00,
2013-10-08 13:45:00,58.1,33.3,29.65,SW,225,1.6,4.0,39,0.00,,---,0.00,VWS V14.01,2013-10-08 17:45:00,
2013-10-08 13:51:00,58.3,32.8,29.68,ESE,112,3.8,4.0,38,0.00,,---,0.00,VWS V14.01,2013-10-08 17:51:00,
2013-10-08 13:57:00,58.5,33.6,29.68,WSW,248,2.7,3.8,39,0.00,,---,0.00,VWS V14.01,2013-10-08 17:57:00,
2013-10-08 14:02:00,58.6,33.8,29.68,WNW,292,3.1,3.1,39,0.00,,---,0.00,VWS V14.01,2013-10-08 18:02:00,
2013-10-08 14:08:00,59.0,33.5,29.68,ESE,112,1.3,2.0,38,0.00,,---,0.00,VWS V14.01,2013-10-08 18:08:00,
2013-10-08 14:13:00,59.2,34.3,29.68,ENE,68,4.3,4.7,39,0.00,,---,0.00,VWS V14.01,2013-10-08 18:13:00,
2013-10-08 14:18:00,59.4,33.8,29.68,SSE,158,0.0,1.3,38,0.00,,---,0.00,VWS V14.01,2013-10-08 18:18:00,
2013-10-08 14:23:00,59.5,33.9,29.68,SW,225,6.9,6.9,38,0.00,,---,0.00,VWS V14.01,2013-10-08 18:23:00,
2013-10-08 14:29:00,59.7,34.7,29.68,ENE,68,2.2,3.8,39,0.00,,---,0.00,VWS V14.01,2013-10-08 18:29:00,
2013-10-08 14:34:00,60.1,34.4,29.68,NW,315,3.1,3.1,38,0.00,,---,0.00,VWS V14.01,2013-10-08 18:34:00,
2013-10-08 14:39:00,60.1,35.1,29.68,WNW,292,0.0,1.3,39,0.00,,---,0.00,VWS V14.01,2013-10-08 18:39:00,
2013-10-08 14:45:00,60.4,34.7,29.68,SW,225,2.7,3.1,38,0.00,,---,0.00,VWS V14.01,2013-10-08 18:45:00,
2013-10-08 14:50:00,60.4,34.7,29.68,ENE,68,2.0,4.0,38,0.00,,---,0.00,VWS V14.01,2013-10-08 18:50:00,
2013-10-08 14:56:00,60.3,33.9,29.68,SSE,158,3.8,5.4,37,0.00,,---,0.00,VWS V14.01,2013-10-08 18:56:00,
2013-10-08 15:01:00,60.1,33.8,29.68,ENE,68,3.1,3.6,37,0.00,,---,0.00,VWS V14.01,2013-10-08 19:01:00,
2013-10-08 15:06:00,60.1,33.1,29.68,SSW,202,2.9,3.8,36,0.00,,---,0.00,VWS V14.01,2013-10-08 19:06:00,
2013-10-08 15:11:00,60.3,33.2,29.68,ESE,112,2.9,4.0,36,0.00,,---,0.00,VWS V14.01,2013-10-08 19:11:00,
2013-10-08 15:16:00,60.1,33.1,29.68,NW,315,2.0,3.1,36,0.00,,---,0.00,VWS V14.01,2013-10-08 19:16:00,
2013-10-08 15:21:00,60.1,33.8,29.68,West,270,3.4,3.6,37,0.00,,---,0.00,VWS V14.01,2013-10-08 19:21:00,
2013-10-08 15:27:00,60.1,33.1,29.68,ENE,68,2.9,2.9,36,0.00,,---,0.00,VWS V14.01,2013-10-08 19:27:00,
2013-10-08 15:32:00,60.3,33.2,29.68,WSW,248,2.5,3.6,36,0.00,,---,0.00,VWS V14.01,2013-10-08 19:32:00,
2013-10-08 15:37:00,60.1,32.4,29.68,ENE,68,2.7,4.3,35,0.00,,---,0.00,VWS V14.01,2013-10-08 19:37:00,
2013-10-08 15:42:00,60.3,33.2,29.68,SW,225,2.7,4.0,36,0.00,,---,0.00,VWS V14.01,2013-10-08 19:42:00,
2013-10-08 15:47:00,60.1,33.1,29.68,NNW,338,3.6,3.6,36,0.00,,---,0.00,VWS V14.01,2013-10-08 19:47:00,
2013-10-08 15:53:00,59.7,32.7,29.71,SSW,202,2.9,4.0,36,0.00,,---,0.00,VWS V14.01,2013-10-08 19:53:00,
2013-10-08 15:58:00,59.5,32.6,29.71,NNE,22,2.5,2.9,36,0.00,,---,0.00,VWS V14.01,2013-10-08 19:58:00,
2013-10-08 16:03:00,59.4,32.4,29.71,SSW,202,2.5,3.6,36,0.00,,---,0.00,VWS V14.01,2013-10-08 20:03:00,
2013-10-08 16:08:00,59.2,32.3,29.71,South,180,1.6,4.3,36,0.00,,---,0.00,VWS V14.01,2013-10-08 20:08:00,
2013-10-08 16:14:00,59.2,32.3,29.71,SSE,158,2.9,4.3,36,0.00,,---,0.00,VWS V14.01,2013-10-08 20:14:00,
2013-10-08 16:19:00,59.0,32.1,29.71,SSW,202,2.7,5.8,36,0.00,,---,0.00,VWS V14.01,2013-10-08 20:19:00,
2013-10-08 16:24:00,58.8,32.6,29.71,SW,225,2.7,4.3,37,0.00,,---,0.00,VWS V14.01,2013-10-08 20:24:00,
2013-10-08 16:29:00,58.6,32.5,29.71,SSE,158,3.1,3.1,37,0.00,,---,0.00,VWS V14.01,2013-10-08 20:29:00,
2013-10-08 16:35:00,58.5,31.6,29.71,SW,225,1.1,2.0,36,0.00,,---,0.00,VWS V14.01,2013-10-08 20:35:00,
2013-10-08 16:40:00,58.5,31.6,29.71,East,90,2.7,4.9,36,0.00,,---,0.00,VWS V14.01,2013-10-08 20:40:00,
2013-10-08 16:45:00,58.3,31.5,29.71,North,0,7.6,7.6,36,0.00,,---,0.00,VWS V14.01,2013-10-08 20:45:00,
2013-10-08 16:50:00,58.1,31.3,29.74,ESE,112,2.7,2.9,36,0.00,,---,0.00,VWS V14.01,2013-10-08 20:50:00,
2013-10-08 16:56:00,57.9,31.1,29.74,WSW,248,3.8,4.0,36,0.00,,---,0.00,VWS V14.01,2013-10-08 20:56:00,
2013-10-08 17:01:00,57.7,31.0,29.74,South,180,2.0,3.1,36,0.00,,---,0.00,VWS V14.01,2013-10-08 21:01:00,
2013-10-08 17:06:00,57.6,30.8,29.74,WSW,248,2.7,2.7,36,0.00,,---,0.00,VWS V14.01,2013-10-08 21:06:00,
2013-10-08 17:11:00,57.2,30.5,29.74,ESE,112,2.0,2.0,36,0.00,,---,0.00,VWS V14.01,2013-10-08 21:11:00,
2013-10-08 17:16:00,57.0,31.0,29.74,SW,225,1.3,2.9,37,0.00,,---,0.00,VWS V14.01,2013-10-08 21:16:00,
2013-10-08 17:22:00,56.7,30.7,29.74,SSW,202,4.3,4.3,37,0.00,,---,0.00,VWS V14.01,2013-10-08 21:22:00,
2013-10-08 17:27:00,56.5,30.5,29.74,WNW,292,0.9,6.0,37,0.00,,---,0.00,VWS V14.01,2013-10-08 21:27:00,
2013-10-08 17:33:00,56.1,30.2,29.74,SSW,202,1.6,2.2,37,0.00,,---,0.00,VWS V14.01,2013-10-08 21:33:00,
2013-10-08 17:38:00,55.9,30.1,29.74,SSW,202,3.8,3.8,37,0.00,,---,0.00,VWS V14.01,2013-10-08 21:38:00,
2013-10-08 17:43:00,55.8,29.9,29.74,WNW,292,1.3,2.7,37,0.00,,---,0.00,VWS V14.01,2013-10-08 21:43:00,
2013-10-08 17:48:00,55.4,29.6,29.74,SE,135,1.3,2.2,37,0.00,,---,0.00,VWS V14.01,2013-10-08 21:48:00,
2013-10-08 17:53:00,55.0,29.9,29.76,South,180,0.0,0.0,38,0.00,,---,0.00,VWS V14.01,2013-10-08 21:53:00,
2013-10-08 17:59:00,54.3,29.3,29.76,North,0,0.9,1.3,38,0.00,,---,0.00,VWS V14.01,2013-10-08 21:59:00,
2013-10-08 18:04:00,53.8,30.0,29.76,WNW,292,0.0,0.0,40,0.00,,---,0.00,VWS V14.01,2013-10-08 22:04:00,
2013-10-08 18:09:00,53.2,29.6,29.76,WSW,248,0.0,1.6,40,0.00,,---,0.00,VWS V14.01,2013-10-08 22:09:00,
2013-10-08 18:15:00,52.7,29.7,29.76,WSW,248,1.6,2.2,41,0.00,,---,0.00,VWS V14.01,2013-10-08 22:15:00,
2013-10-08 18:20:00,52.5,30.1,29.76,SSW,202,2.7,2.7,42,0.00,,---,0.00,VWS V14.01,2013-10-08 22:20:00,
2013-10-08 18:26:00,51.8,30.6,29.76,SSW,202,2.0,2.5,44,0.00,,---,0.00,VWS V14.01,2013-10-08 22:26:00,
2013-10-08 18:31:00,50.9,31.4,29.76,SSW,202,1.6,2.2,47,0.00,,---,0.00,VWS V14.01,2013-10-08 22:31:00,
2013-10-08 18:37:00,50.2,31.3,29.76,SSW,202,2.0,2.9,48,0.00,,---,0.00,VWS V14.01,2013-10-08 22:37:00,
2013-10-08 18:42:00,49.5,31.6,29.76,SSW,202,1.6,2.2,50,0.00,,---,0.00,VWS V14.01,2013-10-08 22:42:00,
2013-10-08 18:48:00,48.7,31.4,29.76,SSW,202,0.0,1.6,51,0.00,,---,0.00,VWS V14.01,2013-10-08 22:48:00,
2013-10-08 18:53:00,48.4,31.6,29.79,SSW,202,0.0,0.0,52,0.00,,---,0.00,VWS V14.01,2013-10-08 22:53:00,
2013-10-08 18:59:00,47.7,31.4,29.79,SSW,202,2.7,2.9,53,0.00,,---,0.00,VWS V14.01,2013-10-08 22:59:00,
2013-10-08 19:04:00,47.1,31.4,29.79,SSW,202,1.1,1.3,54,0.00,,---,0.00,VWS V14.01,2013-10-08 23:04:00,
2013-10-08 19:09:00,46.8,31.5,29.79,SSW,202,0.0,2.0,55,0.00,,---,0.00,VWS V14.01,2013-10-08 23:09:00,
2013-10-08 19:15:00,46.4,31.6,29.79,SW,225,1.6,1.6,56,0.00,,---,0.00,VWS V14.01,2013-10-08 23:15:00,
2013-10-08 19:20:00,45.9,31.9,29.79,SW,225,0.0,0.0,58,0.00,,---,0.00,VWS V14.01,2013-10-08 23:20:00,
2013-10-08 19:25:00,45.5,32.4,29.79,SW,225,0.0,0.0,60,0.00,,---,0.00,VWS V14.01,2013-10-08 23:25:00,
2013-10-08 19:30:00,45.3,32.3,29.79,SW,225,1.3,1.6,60,0.00,,---,0.00,VWS V14.01,2013-10-08 23:30:00,
2013-10-08 19:35:00,44.8,31.8,29.79,SW,225,2.0,2.0,60,0.00,,---,0.00,VWS V14.01,2013-10-08 23:35:00,
2013-10-08 19:40:00,44.6,32.0,29.79,SW,225,1.1,2.0,61,0.00,,---,0.00,VWS V14.01,2013-10-08 23:40:00,
2013-10-08 19:45:00,44.1,31.9,29.79,SW,225,2.2,2.7,62,0.00,,---,0.00,VWS V14.01,2013-10-08 23:45:00,
2013-10-08 19:50:00,43.7,32.0,29.79,SW,225,2.0,2.7,63,0.00,,---,0.00,VWS V14.01,2013-10-08 23:50:00,
2013-10-08 19:55:00,43.5,31.8,29.79,SSW,202,1.3,2.0,63,0.00,,---,0.00,VWS V14.01,2013-10-08 23:55:00,
2013-10-08 20:00:00,43.2,31.8,29.79,SSW,202,0.0,0.0,64,0.00,,---,0.00,VWS V14.01,2013-10-09 00:00:00,
2013-10-08 20:05:00,43.0,32.0,29.79,SSW,202,0.0,0.0,65,0.00,,---,0.00,VWS V14.01,2013-10-09 00:05:00,
2013-10-08 20:10:00,42.6,32.4,29.79,SSW,202,0.0,0.0,67,0.00,,---,0.00,VWS V14.01,2013-10-09 00:10:00,
2013-10-08 20:15:00,42.4,32.3,29.79,SSW,202,1.3,2.0,67,0.00,,---,0.00,VWS V14.01,2013-10-09 00:15:00,
2013-10-08 20:20:00,42.1,31.9,29.79,SSW,202,1.3,2.0,67,0.00,,---,0.00,VWS V14.01,2013-10-09 00:20:00,
2013-10-08 20:25:00,41.7,31.6,29.79,SSW,202,2.2,2.5,67,0.00,,---,0.00,VWS V14.01,2013-10-09 00:25:00,
2013-10-08 20:30:00,41.5,31.8,29.79,SSW,202,1.6,1.6,68,0.00,,---,0.00,VWS V14.01,2013-10-09 00:30:00,
2013-10-08 20:35:00,41.4,31.6,29.82,SSW,202,1.3,2.5,68,0.00,,---,0.00,VWS V14.01,2013-10-09 00:35:00,
2013-10-08 20:40:00,41.2,31.4,29.82,SSW,202,0.9,2.0,68,0.00,,---,0.00,VWS V14.01,2013-10-09 00:40:00,
2013-10-08 20:45:00,41.2,31.4,29.82,SSW,202,2.9,3.1,68,0.00,,---,0.00,VWS V14.01,2013-10-09 00:45:00,
2013-10-08 20:51:00,41.0,31.6,29.82,SW,225,0.0,0.0,69,0.00,,---,0.00,VWS V14.01,2013-10-09 00:51:00,
2013-10-08 20:56:00,41.0,31.6,29.82,SW,225,2.7,2.9,69,0.00,,---,0.00,VWS V14.01,2013-10-09 00:56:00,
2013-10-08 21:01:00,41.0,32.0,29.82,NW,315,2.2,3.8,70,0.00,,---,0.00,VWS V14.01,2013-10-09 01:01:00,
2013-10-08 21:06:00,41.0,32.0,29.82,SW,225,2.0,2.0,70,0.00,,---,0.00,VWS V14.01,2013-10-09 01:06:00,
2013-10-08 21:11:00,40.8,31.8,29.82,SSW,202,1.3,1.3,70,0.00,,---,0.00,VWS V14.01,2013-10-09 01:11:00,
2013-10-08 21:16:00,40.6,32.0,29.82,SSW,202,1.6,2.2,71,0.00,,---,0.00,VWS V14.01,2013-10-09 01:16:00,
2013-10-08 21:21:00,40.5,32.2,29.82,SSW,202,0.0,1.6,72,0.00,,---,0.00,VWS V14.01,2013-10-09 01:21:00,
2013-10-08 21:26:00,40.3,32.3,29.82,SSW,202,1.6,2.0,73,0.00,,---,0.00,VWS V14.01,2013-10-09 01:26:00,
2013-10-08 21:31:00,39.9,31.6,29.82,SSW,202,0.0,0.0,72,0.00,,---,0.00,VWS V14.01,2013-10-09 01:31:00,
2013-10-08 21:36:00,39.7,31.5,29.82,WSW,248,2.5,2.9,72,0.00,,---,0.00,VWS V14.01,2013-10-09 01:36:00,
2013-10-08 21:41:00,39.4,31.1,29.82,WSW,248,2.5,2.5,72,0.00,,---,0.00,VWS V14.01,2013-10-09 01:41:00,
2013-10-08 21:46:00,39.2,31.0,29.82,WSW,248,1.3,2.2,72,0.00,,---,0.00,VWS V14.01,2013-10-09 01:46:00,
2013-10-08 21:51:00,38.8,30.9,29.82,WSW,248,0.0,2.0,73,0.00,,---,0.00,VWS V14.01,2013-10-09 01:51:00,
2013-10-08 21:56:00,39.0,31.1,29.82,WSW,248,2.0,2.7,73,0.00,,---,0.00,VWS V14.01,2013-10-09 01:56:00,
2013-10-08 22:02:00,39.0,31.1,29.82,WSW,248,2.7,2.7,73,0.00,,---,0.00,VWS V14.01,2013-10-09 02:02:00,
2013-10-08 22:07:00,39.0,31.1,29.82,WSW,248,1.6,2.0,73,0.00,,---,0.00,VWS V14.01,2013-10-09 02:07:00,
2013-10-08 22:12:00,38.8,31.3,29.82,ESE,112,0.9,1.6,74,0.00,,---,0.00,VWS V14.01,2013-10-09 02:12:00,
2013-10-08 22:17:00,38.7,31.1,29.82,ESE,112,1.1,1.3,74,0.00,,---,0.00,VWS V14.01,2013-10-09 02:17:00,
2013-10-08 22:22:00,38.5,30.9,29.85,ESE,112,0.0,0.0,74,0.00,,---,0.00,VWS V14.01,2013-10-09 02:22:00,
2013-10-08 22:27:00,38.5,30.9,29.85,ESE,112,1.1,1.6,74,0.00,,---,0.00,VWS V14.01,2013-10-09 02:27:00,
2013-10-08 22:32:00,38.7,31.1,29.85,ESE,112,0.0,1.6,74,0.00,,---,0.00,VWS V14.01,2013-10-09 02:32:00,
2013-10-08 22:37:00,38.7,31.1,29.85,ESE,112,0.0,0.0,74,0.00,,---,0.00,VWS V14.01,2013-10-09 02:37:00,
2013-10-08 22:42:00,38.5,30.9,29.85,SSW,202,0.9,2.0,74,0.00,,---,0.00,VWS V14.01,2013-10-09 02:42:00,
2013-10-08 22:47:00,38.5,30.9,29.85,SSW,202,1.6,2.0,74,0.00,,---,0.00,VWS V14.01,2013-10-09 02:47:00,
2013-10-08 22:52:00,38.1,30.6,29.85,SSW,202,0.0,0.0,74,0.00,,---,0.00,VWS V14.01,2013-10-09 02:52:00,
2013-10-08 22:57:00,38.1,30.9,29.85,SSW,202,2.0,2.0,75,0.00,,---,0.00,VWS V14.01,2013-10-09 02:57:00,
2013-10-08 23:02:00,38.1,30.9,29.85,SSW,202,1.3,2.0,75,0.00,,---,0.00,VWS V14.01,2013-10-09 03:02:00,
2013-10-08 23:08:00,37.8,30.6,29.85,SSW,202,0.0,0.0,75,0.00,,---,0.00,VWS V14.01,2013-10-09 03:08:00,
2013-10-08 23:13:00,37.8,30.9,29.85,SSW,202,1.3,1.3,76,0.00,,---,0.00,VWS V14.01,2013-10-09 03:13:00,
2013-10-08 23:18:00,37.4,30.5,29.85,SSW,202,0.0,0.0,76,0.00,,---,0.00,VWS V14.01,2013-10-09 03:18:00,
2013-10-08 23:23:00,37.2,30.4,29.85,SSW,202,0.0,0.0,76,0.00,,---,0.00,VWS V14.01,2013-10-09 03:23:00,
2013-10-08 23:28:00,37.2,30.4,29.85,SSW,202,1.1,2.0,76,0.00,,---,0.00,VWS V14.01,2013-10-09 03:28:00,
2013-10-08 23:33:00,37.0,30.5,29.85,SSW,202,0.0,0.0,77,0.00,,---,0.00,VWS V14.01,2013-10-09 03:33:00,
2013-10-08 23:38:00,37.0,30.5,29.88,SSW,202,1.3,2.2,77,0.00,,---,0.00,VWS V14.01,2013-10-09 03:38:00,
2013-10-08 23:43:00,37.0,30.5,29.88,SSW,202,2.7,2.7,77,0.00,,---,0.00,VWS V14.01,2013-10-09 03:43:00,
2013-10-08 23:48:00,36.9,30.3,29.88,SSW,202,0.0,0.0,77,0.00,,---,0.00,VWS V14.01,2013-10-09 03:48:00,
2013-10-08 23:53:00,36.7,30.2,29.88,SSW,202,2.0,2.0,77,0.00,,---,0.00,VWS V14.01,2013-10-09 03:53:00,
2013-10-08 23:58:00,36.7,30.2,29.88,SSW,202,1.6,2.2,77,0.00,,---,0.00,VWS V14.01,2013-10-09 03:58:00,